createdAt,value
2023-05-14T00:01:13.528Z,12.13
2023-05-14T00:03:41.121Z,13.07
2023-05-14T00:06:09.558Z,12.70
2023-05-14T00:08:37.052Z,13.27
2023-05-14T00:11:04.398Z,14.00
2023-05-14T00:13:31.754Z,12.98
2023-05-14T00:15:58.901Z,13.48
2023-05-14T00:18:26.146Z,13.57
2023-05-14T00:20:54.983Z,14.05
2023-05-14T00:23:22.817Z,13.88
2023-05-14T00:25:50.480Z,14.23
2023-05-14T00:28:17.726Z,13.63
2023-05-14T00:30:45.176Z,13.40
2023-05-14T00:33:12.536Z,13.50
2023-05-14T00:35:39.683Z,14.07
2023-05-14T00:38:06.705Z,13.40
2023-05-14T00:40:34.169Z,13.25
2023-05-14T00:43:01.398Z,13.40
2023-05-14T00:45:28.740Z,13.55
2023-05-14T00:47:56.201Z,13.95
2023-05-14T00:50:24.021Z,14.85
2023-05-14T00:52:51.344Z,13.88
2023-05-14T00:55:19.424Z,13.90
2023-05-14T00:57:46.995Z,14.70
2023-05-14T01:00:14.640Z,14.30
2023-05-14T01:02:41.883Z,13.77
2023-05-14T01:05:09.643Z,14.10
2023-05-14T01:08:23.293Z,13.90
2023-05-14T01:11:17.949Z,14.15
2023-05-14T01:14:11.254Z,13.95
2023-05-14T01:16:40.517Z,14.60
2023-05-14T01:19:27.691Z,14.20
2023-05-14T01:21:54.805Z,15.10
2023-05-14T01:24:22.515Z,15.02
2023-05-14T01:26:50.035Z,14.63
2023-05-14T01:29:23.354Z,14.50
2023-05-14T01:31:54.238Z,14.55
2023-05-14T01:34:24.718Z,15.27
2023-05-14T01:36:53.556Z,14.77
2023-05-14T01:39:21.348Z,15.00
2023-05-14T01:41:49.212Z,15.70
2023-05-14T01:44:16.487Z,15.30
2023-05-14T01:46:44.843Z,15.82
2023-05-14T01:49:12.215Z,15.63
2023-05-14T01:51:39.725Z,15.50
2023-05-14T01:54:06.783Z,14.55
2023-05-14T01:56:33.890Z,15.73
2023-05-14T01:59:01.104Z,15.82
2023-05-14T02:01:28.559Z,16.15
2023-05-14T02:03:55.908Z,16.25
2023-05-14T02:06:23.174Z,17.08
2023-05-14T02:08:50.300Z,16.55
2023-05-14T02:11:17.482Z,16.60
2023-05-14T02:13:44.749Z,16.42
2023-05-14T02:16:13.137Z,16.40
2023-05-14T02:18:40.503Z,16.50
2023-05-14T02:21:07.758Z,16.25
2023-05-14T02:23:41.523Z,15.52
2023-05-14T02:26:11.033Z,16.23
2023-05-14T02:28:38.420Z,16.42
2023-05-14T02:31:05.774Z,16.65
2023-05-14T02:33:33.115Z,16.55
2023-05-14T02:36:00.271Z,15.68
2023-05-14T02:38:28.054Z,16.67
2023-05-14T02:40:57.167Z,15.85
2023-05-14T02:43:24.572Z,15.82
2023-05-14T02:45:52.593Z,16.23
2023-05-14T02:48:19.762Z,15.40
2023-05-14T02:50:46.964Z,16.05
2023-05-14T02:53:14.408Z,15.77
2023-05-14T02:55:41.600Z,16.35
2023-05-14T02:58:08.869Z,16.80
2023-05-14T03:00:36.078Z,17.52
2023-05-14T03:03:03.666Z,18.02
2023-05-14T03:05:31.132Z,17.27
2023-05-14T03:07:58.847Z,16.48
2023-05-14T03:10:26.110Z,16.75
2023-05-14T03:12:53.626Z,16.40
2023-05-14T03:16:38.193Z,16.70
2023-05-14T03:19:30.141Z,16.48
2023-05-14T03:21:57.211Z,16.38
2023-05-14T03:24:24.267Z,17.05
2023-05-14T03:26:51.343Z,16.30
2023-05-14T03:29:18.661Z,16.42
2023-05-14T03:31:45.819Z,17.38
2023-05-14T03:34:12.774Z,17.10
2023-05-14T03:36:39.853Z,16.40
2023-05-14T03:39:07.048Z,16.27
2023-05-14T03:41:36.384Z,15.35
2023-05-14T03:44:03.586Z,16.35
2023-05-14T03:46:56.463Z,17.00
2023-05-14T03:49:23.568Z,15.55
2023-05-14T03:51:50.835Z,16.70
2023-05-14T03:54:17.994Z,16.38
2023-05-14T03:58:25.811Z,16.23
2023-05-14T04:00:53.689Z,15.82
2023-05-14T04:03:21.031Z,15.88
2023-05-14T04:05:55.639Z,15.70
2023-05-14T04:08:22.755Z,15.85
2023-05-14T04:10:50.510Z,15.65
2023-05-14T04:13:17.508Z,15.65
2023-05-14T04:15:44.863Z,16.10
2023-05-14T04:18:12.065Z,15.82
2023-05-14T04:20:39.238Z,15.73
2023-05-14T04:23:06.485Z,15.93
2023-05-14T04:25:36.687Z,16.95
2023-05-14T04:28:03.892Z,16.08
2023-05-14T04:30:31.145Z,16.27
2023-05-14T04:32:58.347Z,16.52
2023-05-14T04:35:25.785Z,15.55
2023-05-14T04:37:52.912Z,16.05
2023-05-14T04:40:20.187Z,15.82
2023-05-14T04:42:47.230Z,16.00
2023-05-14T04:45:14.650Z,16.88
2023-05-14T04:47:41.908Z,17.20
2023-05-14T04:50:11.313Z,15.30
2023-05-14T04:52:48.167Z,15.18
2023-05-14T04:55:17.972Z,15.25
2023-05-14T04:57:45.143Z,15.73
2023-05-14T05:00:13.204Z,15.60
2023-05-14T05:03:31.287Z,15.73
2023-05-14T05:05:59.769Z,14.32
2023-05-14T05:08:27.029Z,15.07
2023-05-14T05:10:54.144Z,14.43
2023-05-14T05:13:21.150Z,14.65
2023-05-14T05:15:48.165Z,14.25
2023-05-14T05:18:15.258Z,14.02
2023-05-14T05:20:42.319Z,14.57
2023-05-14T05:23:09.345Z,14.15
2023-05-14T05:25:36.671Z,14.93
2023-05-14T05:28:03.713Z,13.95
2023-05-14T05:30:30.804Z,14.15
2023-05-14T05:32:58.085Z,14.52
2023-05-14T05:35:25.503Z,13.63
2023-05-14T05:37:52.625Z,13.30
2023-05-14T05:40:19.856Z,13.27
2023-05-14T05:42:46.869Z,13.38
2023-05-14T05:45:13.887Z,13.73
2023-05-14T05:47:41.126Z,13.40
2023-05-14T05:50:09.653Z,13.25
2023-05-14T05:52:39.163Z,12.57
2023-05-14T05:55:06.780Z,12.32
2023-05-14T05:57:33.914Z,13.30
2023-05-14T06:00:13.095Z,12.32
2023-05-14T06:03:06.876Z,12.55
2023-05-14T06:05:33.951Z,12.15
2023-05-14T06:08:08.396Z,12.75
2023-05-14T06:13:20.874Z,12.27
2023-05-14T06:15:47.925Z,11.35
2023-05-14T06:18:14.956Z,11.60
2023-05-14T06:20:43.059Z,11.68
2023-05-14T06:23:12.147Z,11.35
2023-05-14T06:26:04.562Z,11.07
2023-05-14T06:28:31.540Z,12.00
2023-05-14T06:30:58.533Z,11.77
2023-05-14T06:33:30.868Z,10.45
2023-05-14T06:36:05.591Z,11.15
2023-05-14T06:38:32.973Z,11.00
2023-05-14T06:41:00.191Z,10.48
2023-05-14T06:43:27.572Z,10.20
2023-05-14T06:45:55.007Z,9.88
2023-05-14T06:48:22.343Z,10.13
2023-05-14T06:50:50.199Z,10.00
2023-05-14T06:53:17.496Z,9.48
2023-05-14T06:55:45.022Z,9.25
2023-05-14T06:58:12.160Z,9.32
2023-05-14T07:00:40.386Z,9.27
2023-05-14T07:03:07.731Z,8.88
2023-05-14T07:05:34.746Z,8.27
2023-05-14T07:08:01.764Z,8.77
2023-05-14T07:10:28.766Z,9.18
2023-05-14T07:12:55.783Z,8.30
2023-05-14T07:15:22.805Z,8.13
2023-05-14T07:17:50.916Z,7.50
2023-05-14T07:20:18.066Z,7.53
2023-05-14T07:22:45.058Z,7.72
2023-05-14T07:25:12.560Z,7.95
2023-05-14T07:27:39.530Z,7.45
2023-05-14T07:30:08.075Z,7.93
2023-05-14T07:33:01.364Z,7.07
2023-05-14T07:35:28.512Z,7.35
2023-05-14T07:37:55.612Z,7.03
2023-05-14T07:40:25.018Z,7.20
2023-05-14T07:42:52.366Z,7.07
2023-05-14T07:45:19.447Z,7.10
2023-05-14T07:47:46.678Z,7.05
2023-05-14T07:50:13.985Z,6.38
2023-05-14T07:52:41.037Z,6.53
2023-05-14T07:55:15.790Z,6.35
2023-05-14T07:57:42.931Z,6.40
2023-05-14T08:00:10.962Z,6.07
2023-05-14T08:02:41.064Z,5.70
2023-05-14T08:05:09.130Z,6.40
2023-05-14T08:07:36.211Z,6.18
2023-05-14T08:10:03.414Z,5.70
2023-05-14T08:12:30.554Z,6.65
2023-05-14T08:15:17.526Z,5.90
2023-05-14T08:17:44.767Z,5.32
2023-05-14T08:20:12.203Z,5.55
2023-05-14T08:25:45.491Z,5.57
2023-05-14T08:28:12.763Z,5.97
2023-05-14T08:30:39.914Z,6.28
2023-05-14T08:33:07.130Z,5.75
2023-05-14T08:35:34.320Z,5.63
2023-05-14T08:38:01.353Z,5.30
2023-05-14T08:40:28.845Z,5.55
2023-05-14T08:42:57.385Z,5.18
2023-05-14T08:45:34.065Z,5.38
2023-05-14T08:48:05.641Z,5.30
2023-05-14T08:50:33.088Z,4.75
2023-05-14T08:53:00.253Z,5.32
2023-05-14T08:55:28.550Z,5.05
2023-05-14T08:57:56.668Z,4.90
2023-05-14T09:00:24.969Z,4.93
2023-05-14T09:02:53.105Z,5.20
2023-05-14T09:05:22.214Z,5.57
2023-05-14T09:07:49.914Z,4.88
2023-05-14T09:10:22.470Z,4.85
2023-05-14T09:12:49.933Z,4.53
2023-05-14T09:15:17.101Z,5.55
2023-05-14T09:17:48.016Z,5.07
2023-05-14T09:20:26.701Z,5.40
2023-05-14T09:22:54.977Z,4.88
2023-05-14T09:25:27.679Z,5.30
2023-05-14T09:27:57.284Z,4.70
2023-05-14T09:30:28.942Z,5.15
2023-05-14T09:32:56.287Z,4.93
2023-05-14T09:35:24.937Z,5.10
2023-05-14T09:37:57.549Z,5.30
2023-05-14T09:40:25.120Z,4.97
2023-05-14T09:42:52.583Z,5.53
2023-05-14T09:45:19.650Z,5.10
2023-05-14T09:48:13.214Z,5.07
2023-05-14T09:50:44.939Z,5.60
2023-05-14T09:53:14.661Z,5.00
2023-05-14T09:55:41.870Z,5.43
2023-05-14T09:58:09.062Z,5.30
2023-05-14T10:00:36.375Z,5.10
2023-05-14T10:03:06.946Z,5.15
2023-05-14T10:05:37.991Z,5.57
2023-05-14T10:08:25.466Z,5.40
2023-05-14T10:10:55.821Z,5.80
2023-05-14T10:13:28.924Z,5.43
2023-05-14T10:16:11.982Z,4.82
2023-05-14T10:18:48.613Z,4.40
2023-05-14T10:21:20.283Z,5.95
2023-05-14T10:23:49.333Z,4.88
2023-05-14T10:26:16.607Z,5.55
2023-05-14T10:28:44.022Z,4.57
2023-05-14T10:31:23.841Z,3.92
2023-05-14T10:33:51.318Z,4.00
2023-05-14T10:36:18.846Z,3.45
2023-05-14T10:39:11.569Z,3.70
2023-05-14T10:41:39.181Z,3.72
2023-05-14T10:44:10.127Z,3.60
2023-05-14T10:46:37.385Z,4.07
2023-05-14T10:49:04.754Z,3.90
2023-05-14T10:51:32.358Z,3.83
2023-05-14T10:54:01.780Z,3.97
2023-05-14T10:56:29.178Z,4.57
2023-05-14T10:59:27.400Z,4.38
2023-05-14T11:01:57.759Z,3.90
2023-05-14T11:04:25.068Z,4.13
2023-05-14T11:06:54.046Z,3.70
2023-05-14T11:09:22.642Z,4.30
2023-05-14T11:11:49.689Z,4.13
2023-05-14T11:14:16.779Z,3.92
2023-05-14T11:16:48.007Z,3.90
2023-05-14T11:19:15.527Z,3.30
2023-05-14T11:21:43.016Z,3.20
2023-05-14T11:24:10.299Z,3.65
2023-05-14T11:26:37.582Z,3.55
2023-05-14T11:29:05.422Z,3.63
2023-05-14T11:31:32.500Z,3.70
2023-05-14T11:34:00.069Z,3.35
2023-05-14T11:36:27.018Z,3.10
2023-05-14T11:38:54.050Z,3.38
2023-05-14T11:41:22.818Z,3.17
2023-05-14T11:43:50.071Z,2.90
2023-05-14T11:46:18.578Z,3.10
2023-05-14T11:48:46.080Z,3.45
2023-05-14T11:51:13.185Z,3.22
2023-05-14T11:53:40.252Z,3.22
2023-05-14T11:56:32.609Z,3.22
2023-05-14T11:58:59.571Z,3.08
2023-05-14T12:01:28.455Z,2.85
2023-05-14T12:03:55.622Z,2.90
2023-05-14T12:06:30.825Z,2.90
2023-05-14T12:08:58.102Z,3.17
2023-05-14T12:11:25.308Z,2.83
2023-05-14T12:13:53.302Z,2.85
2023-05-14T12:16:21.654Z,2.75
2023-05-14T12:18:48.869Z,2.85
2023-05-14T12:21:16.118Z,3.05
2023-05-14T12:23:43.310Z,3.17
2023-05-14T12:26:10.790Z,2.92
2023-05-14T12:28:43.588Z,3.08
2023-05-14T12:31:11.092Z,3.08
2023-05-14T12:33:38.339Z,3.10
2023-05-14T12:36:20.251Z,2.72
2023-05-14T12:38:50.826Z,3.05
2023-05-14T12:41:18.511Z,6.38
2023-05-14T12:43:49.751Z,4.97
2023-05-14T12:46:20.156Z,3.15
2023-05-14T12:48:47.312Z,3.45
2023-05-14T12:51:15.245Z,3.17
2023-05-14T12:53:42.551Z,3.58
2023-05-14T12:56:10.080Z,4.05
2023-05-14T12:58:37.484Z,3.08
2023-05-14T13:01:05.588Z,5.72
2023-05-14T13:03:33.222Z,3.30
2023-05-14T13:06:00.500Z,3.83
2023-05-14T13:08:27.815Z,3.00
2023-05-14T13:10:56.227Z,3.30
2023-05-14T13:13:23.855Z,3.25
2023-05-14T13:15:51.213Z,2.97
2023-05-14T13:18:18.761Z,3.25
2023-05-14T13:20:47.632Z,2.85
2023-05-14T13:23:15.670Z,2.97
2023-05-14T13:25:42.964Z,12.63
2023-05-14T13:28:10.301Z,6.45
2023-05-14T13:30:37.838Z,3.35
2023-05-14T13:33:06.355Z,3.47
2023-05-14T13:35:34.551Z,2.92
2023-05-14T13:38:01.713Z,3.00
2023-05-14T13:40:28.794Z,2.72
2023-05-14T13:42:56.076Z,2.75
2023-05-14T13:45:23.484Z,2.50
2023-05-14T13:47:51.622Z,2.90
2023-05-14T13:50:19.027Z,2.85
2023-05-14T13:52:46.237Z,2.90
2023-05-14T13:55:13.522Z,2.92
2023-05-14T13:57:41.790Z,2.80
2023-05-14T14:00:11.633Z,2.90
2023-05-14T14:02:38.880Z,2.78
2023-05-14T14:05:06.956Z,2.75
2023-05-14T14:07:34.490Z,2.90
2023-05-14T14:10:02.357Z,2.88
2023-05-14T14:12:29.684Z,2.55
2023-05-14T14:14:56.986Z,2.40
2023-05-14T14:17:24.154Z,2.55
2023-05-14T14:19:51.378Z,2.40
2023-05-14T14:22:18.615Z,2.67
2023-05-14T14:24:45.676Z,2.58
2023-05-14T14:27:12.779Z,2.90
2023-05-14T14:29:39.882Z,2.85
2023-05-14T14:32:07.811Z,2.80
2023-05-14T14:34:35.133Z,2.70
2023-05-14T14:37:02.896Z,2.55
2023-05-14T14:39:30.079Z,2.60
2023-05-14T14:41:57.303Z,3.00
2023-05-14T14:44:24.531Z,2.38
2023-05-14T14:46:51.617Z,2.70
2023-05-14T14:49:18.806Z,2.90
2023-05-14T14:51:46.968Z,2.55
2023-05-14T14:54:14.187Z,2.50
2023-05-14T14:56:42.996Z,2.30
2023-05-14T14:59:10.071Z,2.50
2023-05-14T15:01:37.206Z,2.60
2023-05-14T15:04:04.733Z,3.03
2023-05-14T15:06:32.133Z,2.70
2023-05-14T15:08:59.647Z,2.70
2023-05-14T15:11:26.900Z,2.67
2023-05-14T15:13:53.998Z,2.40
2023-05-14T15:16:21.196Z,2.50
2023-05-14T15:18:48.475Z,2.42
2023-05-14T15:21:15.692Z,2.47
2023-05-14T15:23:42.873Z,2.47
2023-05-14T15:26:10.078Z,2.65
2023-05-14T15:28:37.215Z,2.53
2023-05-14T15:31:04.773Z,2.47
2023-05-14T15:33:31.938Z,2.63
2023-05-14T15:35:59.060Z,2.30
2023-05-14T15:38:26.378Z,3.30
2023-05-14T15:40:53.721Z,2.70
2023-05-14T15:43:21.091Z,2.60
2023-05-14T15:45:49.166Z,2.58
2023-05-14T15:48:16.336Z,2.90
2023-05-14T15:50:44.047Z,2.50
2023-05-14T15:53:11.090Z,2.55
2023-05-14T15:55:38.361Z,3.03
2023-05-14T15:58:06.283Z,2.85
2023-05-14T16:00:33.372Z,2.80
2023-05-14T16:03:00.544Z,2.95
2023-05-14T16:05:27.868Z,3.03
2023-05-14T16:07:55.122Z,2.70
2023-05-14T16:10:22.483Z,3.10
2023-05-14T16:12:49.715Z,2.90
2023-05-14T16:15:16.883Z,2.78
2023-05-14T16:17:44.008Z,3.05
2023-05-14T16:20:12.541Z,2.80
2023-05-14T16:22:39.728Z,2.85
2023-05-14T16:25:07.499Z,2.72
2023-05-14T16:27:35.096Z,3.65
2023-05-14T16:30:02.340Z,2.97
2023-05-14T16:32:29.605Z,3.22
2023-05-14T16:34:56.858Z,2.88
2023-05-14T16:37:24.087Z,2.85
2023-05-14T16:39:51.353Z,2.85
2023-05-14T16:42:18.620Z,3.28
2023-05-14T16:44:45.723Z,2.80
2023-05-14T16:47:12.998Z,2.90
2023-05-14T16:49:40.067Z,3.28
2023-05-14T16:52:08.345Z,2.65
2023-05-14T16:54:35.562Z,2.88
2023-05-14T16:57:02.584Z,2.78
2023-05-14T16:59:29.664Z,2.83
2023-05-14T17:01:57.058Z,3.10
2023-05-14T17:04:26.574Z,2.88
2023-05-14T17:06:55.012Z,2.95
2023-05-14T17:09:22.181Z,2.90
2023-05-14T17:11:49.281Z,2.72
2023-05-14T17:14:16.307Z,2.92
2023-05-14T17:16:43.575Z,2.83
2023-05-14T17:19:11.036Z,2.83
2023-05-14T17:21:38.412Z,2.60
2023-05-14T17:24:06.028Z,2.75
2023-05-14T17:26:33.228Z,2.70
2023-05-14T17:29:00.443Z,3.33
2023-05-14T17:31:27.676Z,2.90
2023-05-14T17:33:54.960Z,3.42
2023-05-14T17:36:22.204Z,3.45
2023-05-14T17:38:49.270Z,3.67
2023-05-14T17:41:16.435Z,9.18
2023-05-14T17:43:43.676Z,9.93
2023-05-14T17:46:10.989Z,11.00
2023-05-14T17:48:38.160Z,13.65
2023-05-14T17:51:05.232Z,12.63
2023-05-14T17:53:32.442Z,13.43
2023-05-14T17:55:59.910Z,13.50
2023-05-14T17:58:27.494Z,13.98
2023-05-14T18:00:54.816Z,13.60
2023-05-14T18:03:22.081Z,14.45
2023-05-14T18:05:50.581Z,14.20
2023-05-14T18:08:17.881Z,14.95
2023-05-14T18:10:45.125Z,15.13
2023-05-14T18:13:12.342Z,15.85
2023-05-14T18:15:39.665Z,16.15
2023-05-14T18:18:07.078Z,17.13
2023-05-14T18:20:35.594Z,17.52
2023-05-14T18:23:03.300Z,18.08
2023-05-14T18:25:30.694Z,17.25
2023-05-14T18:27:57.957Z,18.40
2023-05-14T18:30:25.060Z,17.90
2023-05-14T18:32:52.381Z,18.20
2023-05-14T18:35:20.047Z,17.63
2023-05-14T18:37:47.363Z,16.83
2023-05-14T18:40:16.325Z,18.70
2023-05-14T18:42:45.792Z,17.98
2023-05-14T18:45:12.880Z,17.40
2023-05-14T18:47:40.535Z,17.80
2023-05-14T18:50:08.670Z,18.80
2023-05-14T18:52:35.954Z,19.23
2023-05-14T18:55:03.371Z,19.80
2023-05-14T18:57:32.175Z,21.00
2023-05-14T19:00:01.982Z,20.38
2023-05-14T19:02:29.523Z,21.30
2023-05-14T19:04:57.115Z,21.00
2023-05-14T19:07:24.288Z,20.70
2023-05-14T19:09:51.560Z,21.80
2023-05-14T19:12:18.668Z,22.02
2023-05-14T19:14:46.020Z,21.48
2023-05-14T19:17:14.461Z,20.75
2023-05-14T19:19:41.592Z,21.80
2023-05-14T19:22:08.886Z,22.77
2023-05-14T19:24:37.733Z,22.90
2023-05-14T19:27:05.367Z,24.05
2023-05-14T19:29:33.635Z,23.42
2023-05-14T19:32:00.941Z,25.13
2023-05-14T19:34:28.204Z,24.23
2023-05-14T19:36:55.707Z,24.83
2023-05-14T19:39:22.893Z,25.30
2023-05-14T19:41:50.121Z,26.60
2023-05-14T19:44:17.435Z,26.02
2023-05-14T19:46:45.277Z,26.85
2023-05-14T19:49:12.614Z,27.60
2023-05-14T19:51:39.701Z,27.30
2023-05-14T19:54:07.028Z,27.13
2023-05-14T19:56:34.256Z,27.38
2023-05-14T19:59:01.540Z,28.20
2023-05-14T20:01:28.954Z,28.15
2023-05-14T20:03:56.117Z,29.00
2023-05-14T20:06:23.371Z,27.48
2023-05-14T20:08:51.500Z,27.63
2023-05-14T20:11:19.532Z,29.42
2023-05-14T20:13:46.748Z,28.10
2023-05-14T20:16:16.729Z,29.98
2023-05-14T20:18:44.907Z,30.23
2023-05-14T20:21:12.263Z,31.08
2023-05-14T20:23:39.322Z,30.95
2023-05-14T20:26:06.383Z,31.85
2023-05-14T20:28:33.555Z,31.50
2023-05-14T20:31:02.890Z,31.88
2023-05-14T20:33:30.851Z,32.70
2023-05-14T20:35:58.056Z,32.90
2023-05-14T20:38:29.186Z,33.95
2023-05-14T20:40:56.347Z,34.00
2023-05-14T20:43:23.778Z,33.97
2023-05-14T20:45:50.948Z,33.22
2023-05-14T20:48:20.026Z,34.30
2023-05-14T20:50:47.359Z,34.63
2023-05-14T20:53:14.447Z,35.05
2023-05-14T20:55:41.622Z,35.10
2023-05-14T20:58:08.815Z,35.38
2023-05-14T21:00:35.975Z,35.03
2023-05-14T21:03:03.626Z,35.80
2023-05-14T21:05:30.874Z,36.90
2023-05-14T21:07:57.965Z,35.35
2023-05-14T21:10:25.556Z,37.03
2023-05-14T21:12:53.070Z,36.50
2023-05-14T21:15:20.648Z,35.53
2023-05-14T21:17:47.777Z,36.30
2023-05-14T21:20:15.623Z,37.60
2023-05-14T21:22:42.901Z,37.47
2023-05-14T21:25:10.204Z,35.88
2023-05-14T21:27:37.638Z,36.85
2023-05-14T21:30:05.512Z,37.72
2023-05-14T21:32:32.748Z,37.42
2023-05-14T21:34:59.859Z,36.80
2023-05-14T21:37:27.094Z,37.67
2023-05-14T21:39:54.295Z,38.80
2023-05-14T21:42:21.454Z,37.55
2023-05-14T21:44:48.579Z,38.00
2023-05-14T21:47:16.492Z,37.08
2023-05-14T21:49:43.685Z,37.35
2023-05-14T21:52:10.896Z,37.95
2023-05-14T21:54:38.057Z,38.00
2023-05-14T21:57:05.476Z,38.83
2023-05-14T21:59:33.857Z,38.97
2023-05-14T22:04:31.186Z,39.30
2023-05-14T22:06:58.380Z,40.67
2023-05-14T22:09:25.837Z,39.13
2023-05-14T22:11:53.040Z,39.50
2023-05-14T22:14:20.157Z,39.85
2023-05-14T22:16:47.556Z,39.05
2023-05-14T22:19:16.611Z,40.42
2023-05-14T22:21:43.827Z,40.05
2023-05-14T22:24:10.926Z,41.08
2023-05-14T22:26:38.026Z,41.25
2023-05-14T22:29:05.381Z,41.97
2023-05-14T22:31:32.546Z,41.17
2023-05-14T22:33:59.761Z,41.05
2023-05-14T22:36:26.885Z,41.28
2023-05-14T22:38:53.970Z,41.33
2023-05-14T22:41:22.224Z,40.53
2023-05-14T22:43:49.509Z,41.03
2023-05-14T22:46:16.820Z,41.50
2023-05-14T22:48:44.946Z,44.03
2023-05-14T22:51:11.975Z,42.53
2023-05-14T22:53:39.080Z,41.97
2023-05-14T22:56:06.614Z,43.58
2023-05-14T22:58:33.732Z,43.20
2023-05-14T23:01:00.880Z,44.05
2023-05-14T23:03:28.167Z,42.72
2023-05-14T23:05:55.353Z,44.42
2023-05-14T23:08:22.425Z,44.70
2023-05-14T23:10:49.723Z,44.33
2023-05-14T23:13:17.142Z,44.88
2023-05-14T23:15:44.393Z,45.38
2023-05-14T23:18:11.528Z,45.10
2023-05-14T23:20:38.691Z,45.53
2023-05-14T23:23:06.387Z,44.75
2023-05-14T23:25:33.606Z,43.90
2023-05-14T23:28:00.819Z,45.65
2023-05-14T23:30:27.907Z,44.17
2023-05-14T23:32:55.131Z,46.90
2023-05-14T23:35:22.956Z,46.03
2023-05-14T23:37:51.149Z,46.00
2023-05-14T23:40:18.466Z,44.72
2023-05-14T23:42:45.671Z,46.08
2023-05-14T23:45:13.503Z,46.33
2023-05-14T23:47:41.373Z,47.10
2023-05-14T23:50:08.878Z,47.35
2023-05-14T23:52:35.964Z,49.03
2023-05-14T23:55:03.539Z,49.13
2023-05-14T23:57:30.772Z,49.75
2023-05-14T23:59:58.055Z,50.72
